sensor_id;sensor_type;location;lat;lon;timestamp;P1;durP1;ratioP1;P2;durP2;ratioP2
17347;SDS011;8791;50.876;4.342;2023-06-24T00:00:09;5.30;;;4.03;;
17347;SDS011;8791;50.876;4.342;2023-06-24T00:02:37;4.25;;;3.85;;
17347;SDS011;8791;50.876;4.342;2023-06-24T00:05:06;4.22;;;3.58;;
17347;SDS011;8791;50.876;4.342;2023-06-24T00:07:33;9.90;;;3.33;;
17347;SDS011;8791;50.876;4.342;2023-06-24T00:10:09;4.72;;;3.97;;
17347;SDS011;8791;50.876;4.342;2023-06-24T00:12:38;3.75;;;3.25;;
17347;SDS011;8791;50.876;4.342;2023-06-24T00:15:06;4.60;;;3.40;;
17347;SDS011;8791;50.876;4.342;2023-06-24T00:17:35;7.20;;;3.33;;
17347;SDS011;8791;50.876;4.342;2023-06-24T00:20:02;4.10;;;3.40;;
17347;SDS011;8791;50.876;4.342;2023-06-24T00:22:34;3.35;;;2.92;;
17347;SDS011;8791;50.876;4.342;2023-06-24T00:25:00;5.53;;;3.35;;
17347;SDS011;8791;50.876;4.342;2023-06-24T00:27:28;6.25;;;3.13;;
17347;SDS011;8791;50.876;4.342;2023-06-24T00:29:56;3.22;;;2.92;;
17347;SDS011;8791;50.876;4.342;2023-06-24T00:32:22;2.92;;;2.72;;
17347;SDS011;8791;50.876;4.342;2023-06-24T00:34:49;4.28;;;3.13;;
17347;SDS011;8791;50.876;4.342;2023-06-24T00:37:16;3.17;;;2.88;;
17347;SDS011;8791;50.876;4.342;2023-06-24T00:39:43;5.90;;;3.05;;
17347;SDS011;8791;50.876;4.342;2023-06-24T00:42:10;5.22;;;3.13;;
17347;SDS011;8791;50.876;4.342;2023-06-24T00:44:37;6.47;;;2.88;;
17347;SDS011;8791;50.876;4.342;2023-06-24T00:47:06;6.00;;;2.70;;
17347;SDS011;8791;50.876;4.342;2023-06-24T00:49:35;2.92;;;2.70;;
17347;SDS011;8791;50.876;4.342;2023-06-24T00:52:02;3.92;;;2.95;;
17347;SDS011;8791;50.876;4.342;2023-06-24T00:54:29;4.03;;;3.33;;
17347;SDS011;8791;50.876;4.342;2023-06-24T00:56:57;3.08;;;2.78;;
17347;SDS011;8791;50.876;4.342;2023-06-24T00:59:26;6.30;;;3.20;;
17347;SDS011;8791;50.876;4.342;2023-06-24T01:01:57;4.78;;;2.75;;
17347;SDS011;8791;50.876;4.342;2023-06-24T01:04:30;3.53;;;3.00;;
17347;SDS011;8791;50.876;4.342;2023-06-24T01:06:58;4.13;;;2.85;;
17347;SDS011;8791;50.876;4.342;2023-06-24T01:09:26;2.80;;;2.53;;
17347;SDS011;8791;50.876;4.342;2023-06-24T01:11:53;3.65;;;3.13;;
17347;SDS011;8791;50.876;4.342;2023-06-24T01:14:20;4.90;;;2.67;;
17347;SDS011;8791;50.876;4.342;2023-06-24T01:16:49;3.65;;;2.75;;
17347;SDS011;8791;50.876;4.342;2023-06-24T01:19:29;3.83;;;3.10;;
17347;SDS011;8791;50.876;4.342;2023-06-24T01:22:18;3.60;;;3.30;;
17347;SDS011;8791;50.876;4.342;2023-06-24T01:25:00;5.95;;;4.00;;
17347;SDS011;8791;50.876;4.342;2023-06-24T01:27:52;3.97;;;3.42;;
17347;SDS011;8791;50.876;4.342;2023-06-24T01:30:43;3.70;;;3.40;;
17347;SDS011;8791;50.876;4.342;2023-06-24T01:33:29;4.57;;;3.38;;
17347;SDS011;8791;50.876;4.342;2023-06-24T01:36:02;5.10;;;3.70;;
17347;SDS011;8791;50.876;4.342;2023-06-24T01:38:35;4.88;;;3.70;;
17347;SDS011;8791;50.876;4.342;2023-06-24T01:41:05;6.35;;;4.13;;
17347;SDS011;8791;50.876;4.342;2023-06-24T01:43:33;5.25;;;4.13;;
17347;SDS011;8791;50.876;4.342;2023-06-24T01:46:02;4.30;;;3.90;;
17347;SDS011;8791;50.876;4.342;2023-06-24T01:48:34;5.07;;;3.67;;
17347;SDS011;8791;50.876;4.342;2023-06-24T01:51:03;6.65;;;4.18;;
17347;SDS011;8791;50.876;4.342;2023-06-24T01:53:34;5.05;;;3.58;;
17347;SDS011;8791;50.876;4.342;2023-06-24T01:56:05;5.65;;;3.75;;
17347;SDS011;8791;50.876;4.342;2023-06-24T01:58:33;7.88;;;4.07;;
17347;SDS011;8791;50.876;4.342;2023-06-24T02:01:02;4.55;;;4.15;;
17347;SDS011;8791;50.876;4.342;2023-06-24T02:03:30;8.30;;;3.80;;
17347;SDS011;8791;50.876;4.342;2023-06-24T02:06:00;5.28;;;3.97;;
17347;SDS011;8791;50.876;4.342;2023-06-24T02:08:29;6.72;;;4.43;;
17347;SDS011;8791;50.876;4.342;2023-06-24T02:10:58;6.60;;;4.28;;
17347;SDS011;8791;50.876;4.342;2023-06-24T02:13:27;4.50;;;4.10;;
17347;SDS011;8791;50.876;4.342;2023-06-24T02:15:56;7.57;;;3.97;;
17347;SDS011;8791;50.876;4.342;2023-06-24T02:18:25;6.43;;;4.57;;
17347;SDS011;8791;50.876;4.342;2023-06-24T02:20:53;4.85;;;4.35;;
17347;SDS011;8791;50.876;4.342;2023-06-24T02:23:23;6.80;;;4.40;;
17347;SDS011;8791;50.876;4.342;2023-06-24T02:25:51;7.88;;;4.40;;
17347;SDS011;8791;50.876;4.342;2023-06-24T02:28:18;4.65;;;4.15;;
17347;SDS011;8791;50.876;4.342;2023-06-24T02:30:46;6.15;;;4.28;;
17347;SDS011;8791;50.876;4.342;2023-06-24T02:33:14;6.40;;;4.40;;
17347;SDS011;8791;50.876;4.342;2023-06-24T02:35:41;11.18;;;4.40;;
17347;SDS011;8791;50.876;4.342;2023-06-24T02:38:10;5.05;;;4.55;;
17347;SDS011;8791;50.876;4.342;2023-06-24T02:40:38;4.93;;;4.40;;
17347;SDS011;8791;50.876;4.342;2023-06-24T02:43:06;5.25;;;4.75;;
17347;SDS011;8791;50.876;4.342;2023-06-24T02:45:32;8.90;;;4.82;;
17347;SDS011;8791;50.876;4.342;2023-06-24T02:48:00;8.27;;;4.55;;
17347;SDS011;8791;50.876;4.342;2023-06-24T02:50:27;5.40;;;4.47;;
17347;SDS011;8791;50.876;4.342;2023-06-24T02:52:54;5.22;;;4.32;;
17347;SDS011;8791;50.876;4.342;2023-06-24T02:55:22;5.38;;;4.18;;
17347;SDS011;8791;50.876;4.342;2023-06-24T02:57:50;7.80;;;4.32;;
17347;SDS011;8791;50.876;4.342;2023-06-24T03:00:18;6.32;;;4.63;;
17347;SDS011;8791;50.876;4.342;2023-06-24T03:02:46;5.82;;;4.80;;
17347;SDS011;8791;50.876;4.342;2023-06-24T03:05:14;5.32;;;4.40;;
17347;SDS011;8791;50.876;4.342;2023-06-24T03:07:42;5.07;;;4.57;;
17347;SDS011;8791;50.876;4.342;2023-06-24T03:10:09;6.32;;;5.13;;
17347;SDS011;8791;50.876;4.342;2023-06-24T03:12:36;7.88;;;4.28;;
17347;SDS011;8791;50.876;4.342;2023-06-24T03:15:05;6.32;;;4.22;;
17347;SDS011;8791;50.876;4.342;2023-06-24T03:17:34;6.82;;;4.90;;
17347;SDS011;8791;50.876;4.342;2023-06-24T03:20:01;7.97;;;4.43;;
17347;SDS011;8791;50.876;4.342;2023-06-24T03:22:29;7.75;;;4.80;;
17347;SDS011;8791;50.876;4.342;2023-06-24T03:24:56;4.72;;;4.15;;
17347;SDS011;8791;50.876;4.342;2023-06-24T03:27:24;6.82;;;4.60;;
17347;SDS011;8791;50.876;4.342;2023-06-24T03:29:50;7.60;;;4.90;;
17347;SDS011;8791;50.876;4.342;2023-06-24T03:32:19;7.00;;;4.50;;
17347;SDS011;8791;50.876;4.342;2023-06-24T03:34:45;9.25;;;4.80;;
17347;SDS011;8791;50.876;4.342;2023-06-24T03:37:12;5.70;;;4.75;;
17347;SDS011;8791;50.876;4.342;2023-06-24T03:39:39;9.50;;;5.10;;
17347;SDS011;8791;50.876;4.342;2023-06-24T03:42:06;8.48;;;4.60;;
17347;SDS011;8791;50.876;4.342;2023-06-24T03:44:33;7.13;;;4.90;;
17347;SDS011;8791;50.876;4.342;2023-06-24T03:47:00;13.45;;;5.45;;
17347;SDS011;8791;50.876;4.342;2023-06-24T03:49:28;8.27;;;7.05;;
17347;SDS011;8791;50.876;4.342;2023-06-24T03:51:55;13.02;;;5.43;;
17347;SDS011;8791;50.876;4.342;2023-06-24T03:54:21;7.45;;;5.65;;
17347;SDS011;8791;50.876;4.342;2023-06-24T03:56:48;9.07;;;4.80;;
17347;SDS011;8791;50.876;4.342;2023-06-24T03:59:15;6.72;;;4.82;;
17347;SDS011;8791;50.876;4.342;2023-06-24T04:01:43;10.85;;;5.65;;
17347;SDS011;8791;50.876;4.342;2023-06-24T04:04:10;8.05;;;5.05;;
17347;SDS011;8791;50.876;4.342;2023-06-24T04:06:38;5.80;;;5.30;;
17347;SDS011;8791;50.876;4.342;2023-06-24T04:09:05;6.65;;;5.10;;
17347;SDS011;8791;50.876;4.342;2023-06-24T04:11:33;11.27;;;5.32;;
17347;SDS011;8791;50.876;4.342;2023-06-24T04:14:00;7.07;;;5.13;;
17347;SDS011;8791;50.876;4.342;2023-06-24T04:16:27;6.47;;;5.15;;
17347;SDS011;8791;50.876;4.342;2023-06-24T04:18:54;6.57;;;5.30;;
17347;SDS011;8791;50.876;4.342;2023-06-24T04:21:20;5.55;;;4.75;;
17347;SDS011;8791;50.876;4.342;2023-06-24T04:23:49;5.63;;;4.85;;
17347;SDS011;8791;50.876;4.342;2023-06-24T04:26:16;7.13;;;4.78;;
17347;SDS011;8791;50.876;4.342;2023-06-24T04:28:43;9.25;;;4.60;;
17347;SDS011;8791;50.876;4.342;2023-06-24T04:31:10;6.53;;;4.55;;
17347;SDS011;8791;50.876;4.342;2023-06-24T04:33:36;8.05;;;5.05;;
17347;SDS011;8791;50.876;4.342;2023-06-24T04:36:04;5.03;;;4.30;;
17347;SDS011;8791;50.876;4.342;2023-06-24T04:38:30;4.82;;;3.90;;
17347;SDS011;8791;50.876;4.342;2023-06-24T04:40:59;9.95;;;4.40;;
17347;SDS011;8791;50.876;4.342;2023-06-24T04:43:26;7.38;;;4.60;;
17347;SDS011;8791;50.876;4.342;2023-06-24T04:45:53;6.13;;;4.55;;
17347;SDS011;8791;50.876;4.342;2023-06-24T04:48:22;5.38;;;4.35;;
17347;SDS011;8791;50.876;4.342;2023-06-24T04:50:49;5.78;;;4.43;;
17347;SDS011;8791;50.876;4.342;2023-06-24T04:53:18;8.10;;;4.10;;
17347;SDS011;8791;50.876;4.342;2023-06-24T04:55:45;7.53;;;4.38;;
17347;SDS011;8791;50.876;4.342;2023-06-24T04:58:13;5.82;;;4.15;;
17347;SDS011;8791;50.876;4.342;2023-06-24T05:00:40;6.40;;;4.40;;
17347;SDS011;8791;50.876;4.342;2023-06-24T05:03:06;6.90;;;4.20;;
17347;SDS011;8791;50.876;4.342;2023-06-24T05:05:33;5.70;;;4.03;;
17347;SDS011;8791;50.876;4.342;2023-06-24T05:08:00;5.32;;;4.25;;
17347;SDS011;8791;50.876;4.342;2023-06-24T05:10:27;5.93;;;4.30;;
17347;SDS011;8791;50.876;4.342;2023-06-24T05:12:54;4.85;;;4.35;;
17347;SDS011;8791;50.876;4.342;2023-06-24T05:15:22;5.13;;;3.92;;
17347;SDS011;8791;50.876;4.342;2023-06-24T05:17:49;4.78;;;3.70;;
17347;SDS011;8791;50.876;4.342;2023-06-24T05:20:15;6.53;;;3.85;;
17347;SDS011;8791;50.876;4.342;2023-06-24T05:22:42;4.25;;;3.95;;
17347;SDS011;8791;50.876;4.342;2023-06-24T05:25:09;4.05;;;3.75;;
17347;SDS011;8791;50.876;4.342;2023-06-24T05:27:36;4.47;;;3.70;;
17347;SDS011;8791;50.876;4.342;2023-06-24T05:30:03;5.38;;;3.67;;
17347;SDS011;8791;50.876;4.342;2023-06-24T05:32:32;6.75;;;3.88;;
17347;SDS011;8791;50.876;4.342;2023-06-24T05:34:59;5.05;;;3.47;;
17347;SDS011;8791;50.876;4.342;2023-06-24T05:37:26;6.88;;;3.80;;
17347;SDS011;8791;50.876;4.342;2023-06-24T05:39:53;6.72;;;4.05;;
17347;SDS011;8791;50.876;4.342;2023-06-24T05:42:20;7.18;;;4.15;;
17347;SDS011;8791;50.876;4.342;2023-06-24T05:44:48;5.25;;;3.67;;
17347;SDS011;8791;50.876;4.342;2023-06-24T05:47:14;4.88;;;3.78;;
17347;SDS011;8791;50.876;4.342;2023-06-24T05:49:43;4.25;;;3.85;;
17347;SDS011;8791;50.876;4.342;2023-06-24T05:52:10;4.13;;;3.72;;
17347;SDS011;8791;50.876;4.342;2023-06-24T05:54:37;5.07;;;3.58;;
17347;SDS011;8791;50.876;4.342;2023-06-24T05:57:04;6.68;;;3.83;;
17347;SDS011;8791;50.876;4.342;2023-06-24T05:59:32;5.93;;;4.63;;
17347;SDS011;8791;50.876;4.342;2023-06-24T06:01:58;6.95;;;3.70;;
17347;SDS011;8791;50.876;4.342;2023-06-24T06:04:26;4.65;;;4.20;;
17347;SDS011;8791;50.876;4.342;2023-06-24T06:06:54;5.55;;;3.88;;
17347;SDS011;8791;50.876;4.342;2023-06-24T06:09:21;5.72;;;4.00;;
17347;SDS011;8791;50.876;4.342;2023-06-24T06:11:48;7.13;;;4.18;;
17347;SDS011;8791;50.876;4.342;2023-06-24T06:14:15;8.15;;;4.10;;
17347;SDS011;8791;50.876;4.342;2023-06-24T06:16:42;6.60;;;4.15;;
17347;SDS011;8791;50.876;4.342;2023-06-24T06:19:09;5.80;;;3.83;;
17347;SDS011;8791;50.876;4.342;2023-06-24T06:21:36;4.70;;;3.50;;
17347;SDS011;8791;50.876;4.342;2023-06-24T06:24:05;4.60;;;4.05;;
17347;SDS011;8791;50.876;4.342;2023-06-24T06:26:32;7.20;;;4.10;;
17347;SDS011;8791;50.876;4.342;2023-06-24T06:28:59;4.50;;;4.10;;
17347;SDS011;8791;50.876;4.342;2023-06-24T06:31:25;5.82;;;3.65;;
17347;SDS011;8791;50.876;4.342;2023-06-24T06:33:52;5.95;;;3.50;;
17347;SDS011;8791;50.876;4.342;2023-06-24T06:36:19;4.35;;;3.88;;
17347;SDS011;8791;50.876;4.342;2023-06-24T06:38:46;4.50;;;4.10;;
17347;SDS011;8791;50.876;4.342;2023-06-24T06:41:15;4.03;;;3.63;;
17347;SDS011;8791;50.876;4.342;2023-06-24T06:43:42;4.05;;;3.63;;
17347;SDS011;8791;50.876;4.342;2023-06-24T06:46:09;6.28;;;4.00;;
17347;SDS011;8791;50.876;4.342;2023-06-24T06:48:36;4.28;;;3.58;;
17347;SDS011;8791;50.876;4.342;2023-06-24T06:51:03;3.97;;;3.67;;
17347;SDS011;8791;50.876;4.342;2023-06-24T06:53:29;6.35;;;3.67;;
17347;SDS011;8791;50.876;4.342;2023-06-24T06:55:56;3.95;;;3.50;;
17347;SDS011;8791;50.876;4.342;2023-06-24T06:58:25;3.88;;;3.47;;
17347;SDS011;8791;50.876;4.342;2023-06-24T07:00:51;4.70;;;4.00;;
17347;SDS011;8791;50.876;4.342;2023-06-24T07:03:18;8.38;;;3.50;;
17347;SDS011;8791;50.876;4.342;2023-06-24T07:05:45;3.80;;;3.50;;
17347;SDS011;8791;50.876;4.342;2023-06-24T07:08:12;3.70;;;3.40;;
17347;SDS011;8791;50.876;4.342;2023-06-24T07:10:39;4.40;;;3.35;;
17347;SDS011;8791;50.876;4.342;2023-06-24T07:13:06;4.97;;;3.60;;
17347;SDS011;8791;50.876;4.342;2023-06-24T07:15:34;4.03;;;3.35;;
17347;SDS011;8791;50.876;4.342;2023-06-24T07:18:01;5.53;;;3.30;;
17347;SDS011;8791;50.876;4.342;2023-06-24T07:20:27;3.40;;;3.10;;
17347;SDS011;8791;50.876;4.342;2023-06-24T07:22:54;4.18;;;3.20;;
17347;SDS011;8791;50.876;4.342;2023-06-24T07:25:21;7.57;;;3.08;;
17347;SDS011;8791;50.876;4.342;2023-06-24T07:27:48;7.70;;;3.30;;
17347;SDS011;8791;50.876;4.342;2023-06-24T07:30:15;3.53;;;2.90;;
17347;SDS011;8791;50.876;4.342;2023-06-24T07:32:43;2.90;;;2.70;;
17347;SDS011;8791;50.876;4.342;2023-06-24T07:35:10;5.22;;;2.90;;
17347;SDS011;8791;50.876;4.342;2023-06-24T07:37:38;3.50;;;3.20;;
17347;SDS011;8791;50.876;4.342;2023-06-24T07:40:05;3.72;;;2.97;;
17347;SDS011;8791;50.876;4.342;2023-06-24T07:42:34;4.55;;;3.03;;
17347;SDS011;8791;50.876;4.342;2023-06-24T07:45:01;4.65;;;2.85;;
17347;SDS011;8791;50.876;4.342;2023-06-24T07:47:28;3.45;;;2.97;;
17347;SDS011;8791;50.876;4.342;2023-06-24T07:49:58;3.30;;;2.97;;
17347;SDS011;8791;50.876;4.342;2023-06-24T07:52:25;3.58;;;3.20;;
17347;SDS011;8791;50.876;4.342;2023-06-24T07:54:51;6.50;;;2.72;;
17347;SDS011;8791;50.876;4.342;2023-06-24T07:57:18;3.92;;;2.78;;
17347;SDS011;8791;50.876;4.342;2023-06-24T07:59:45;10.20;;;2.95;;
17347;SDS011;8791;50.876;4.342;2023-06-24T08:02:13;4.15;;;3.13;;
17347;SDS011;8791;50.876;4.342;2023-06-24T08:04:40;6.70;;;2.80;;
17347;SDS011;8791;50.876;4.342;2023-06-24T08:07:08;5.40;;;2.58;;
17347;SDS011;8791;50.876;4.342;2023-06-24T08:09:35;4.95;;;2.70;;
17347;SDS011;8791;50.876;4.342;2023-06-24T08:12:03;2.65;;;2.35;;
17347;SDS011;8791;50.876;4.342;2023-06-24T08:14:30;3.92;;;2.60;;
17347;SDS011;8791;50.876;4.342;2023-06-24T08:16:57;3.15;;;2.38;;
17347;SDS011;8791;50.876;4.342;2023-06-24T08:19:23;5.40;;;2.90;;
17347;SDS011;8791;50.876;4.342;2023-06-24T08:21:50;6.38;;;2.50;;
17347;SDS011;8791;50.876;4.342;2023-06-24T08:24:19;4.72;;;2.20;;
17347;SDS011;8791;50.876;4.342;2023-06-24T08:26:46;3.05;;;2.33;;
17347;SDS011;8791;50.876;4.342;2023-06-24T08:29:12;2.72;;;2.53;;
17347;SDS011;8791;50.876;4.342;2023-06-24T08:31:39;3.20;;;2.28;;
17347;SDS011;8791;50.876;4.342;2023-06-24T08:34:06;7.28;;;3.85;;
17347;SDS011;8791;50.876;4.342;2023-06-24T08:36:33;2.80;;;2.50;;
17347;SDS011;8791;50.876;4.342;2023-06-24T08:39:02;2.60;;;2.40;;
17347;SDS011;8791;50.876;4.342;2023-06-24T08:41:30;3.67;;;2.38;;
17347;SDS011;8791;50.876;4.342;2023-06-24T08:43:57;4.65;;;2.45;;
17347;SDS011;8791;50.876;4.342;2023-06-24T08:46:24;2.78;;;2.30;;
17347;SDS011;8791;50.876;4.342;2023-06-24T08:48:53;3.00;;;2.35;;
17347;SDS011;8791;50.876;4.342;2023-06-24T08:51:27;2.63;;;1.95;;
17347;SDS011;8791;50.876;4.342;2023-06-24T08:53:55;4.75;;;1.80;;
17347;SDS011;8791;50.876;4.342;2023-06-24T08:56:24;2.42;;;2.00;;
17347;SDS011;8791;50.876;4.342;2023-06-24T08:58:53;3.53;;;2.72;;
17347;SDS011;8791;50.876;4.342;2023-06-24T09:01:20;2.28;;;2.08;;
17347;SDS011;8791;50.876;4.342;2023-06-24T09:03:47;3.03;;;2.33;;
17347;SDS011;8791;50.876;4.342;2023-06-24T09:06:14;2.50;;;2.30;;
17347;SDS011;8791;50.876;4.342;2023-06-24T09:08:40;4.55;;;1.90;;
17347;SDS011;8791;50.876;4.342;2023-06-24T09:11:08;2.80;;;2.08;;
17347;SDS011;8791;50.876;4.342;2023-06-24T09:13:35;2.28;;;2.03;;
17347;SDS011;8791;50.876;4.342;2023-06-24T09:16:13;15.55;;;6.80;;
17347;SDS011;8791;50.876;4.342;2023-06-24T09:18:41;3.88;;;1.92;;
17347;SDS011;8791;50.876;4.342;2023-06-24T09:21:13;2.85;;;2.20;;
17347;SDS011;8791;50.876;4.342;2023-06-24T09:23:40;6.65;;;2.50;;
17347;SDS011;8791;50.876;4.342;2023-06-24T09:26:09;1.90;;;1.67;;
17347;SDS011;8791;50.876;4.342;2023-06-24T09:28:37;2.90;;;1.80;;
17347;SDS011;8791;50.876;4.342;2023-06-24T09:31:05;4.72;;;1.80;;
17347;SDS011;8791;50.876;4.342;2023-06-24T09:33:33;2.58;;;2.10;;
17347;SDS011;8791;50.876;4.342;2023-06-24T09:36:01;2.97;;;2.10;;
17347;SDS011;8791;50.876;4.342;2023-06-24T09:38:32;6.43;;;2.30;;
17347;SDS011;8791;50.876;4.342;2023-06-24T09:41:01;4.63;;;2.15;;
17347;SDS011;8791;50.876;4.342;2023-06-24T09:43:29;1.73;;;1.60;;
17347;SDS011;8791;50.876;4.342;2023-06-24T09:45:57;2.72;;;1.90;;
17347;SDS011;8791;50.876;4.342;2023-06-24T09:48:24;2.22;;;2.03;;
17347;SDS011;8791;50.876;4.342;2023-06-24T09:50:53;2.00;;;1.90;;
17347;SDS011;8791;50.876;4.342;2023-06-24T09:53:20;2.53;;;1.95;;
17347;SDS011;8791;50.876;4.342;2023-06-24T09:55:48;2.83;;;1.88;;
17347;SDS011;8791;50.876;4.342;2023-06-24T09:58:16;1.88;;;1.67;;
17347;SDS011;8791;50.876;4.342;2023-06-24T10:00:45;1.75;;;1.60;;
17347;SDS011;8791;50.876;4.342;2023-06-24T10:03:12;1.70;;;1.60;;
17347;SDS011;8791;50.876;4.342;2023-06-24T10:05:40;2.17;;;1.50;;
17347;SDS011;8791;50.876;4.342;2023-06-24T10:08:10;2.70;;;2.50;;
17347;SDS011;8791;50.876;4.342;2023-06-24T10:10:37;2.20;;;2.00;;
17347;SDS011;8791;50.876;4.342;2023-06-24T10:13:04;3.25;;;1.80;;
17347;SDS011;8791;50.876;4.342;2023-06-24T10:15:31;3.25;;;2.00;;
17347;SDS011;8791;50.876;4.342;2023-06-24T10:18:00;2.90;;;2.00;;
17347;SDS011;8791;50.876;4.342;2023-06-24T10:20:28;6.47;;;2.13;;
17347;SDS011;8791;50.876;4.342;2023-06-24T10:22:55;2.58;;;1.70;;
17347;SDS011;8791;50.876;4.342;2023-06-24T10:25:24;3.45;;;1.98;;
17347;SDS011;8791;50.876;4.342;2023-06-24T10:28:01;2.47;;;1.60;;
17347;SDS011;8791;50.876;4.342;2023-06-24T10:30:28;2.40;;;2.20;;
17347;SDS011;8791;50.876;4.342;2023-06-24T10:32:57;2.38;;;2.17;;
17347;SDS011;8791;50.876;4.342;2023-06-24T10:35:24;2.55;;;2.08;;
17347;SDS011;8791;50.876;4.342;2023-06-24T10:37:55;6.68;;;2.70;;
17347;SDS011;8791;50.876;4.342;2023-06-24T10:40:35;2.42;;;2.15;;
17347;SDS011;8791;50.876;4.342;2023-06-24T10:43:22;2.50;;;2.17;;
17347;SDS011;8791;50.876;4.342;2023-06-24T10:45:54;2.05;;;1.85;;
17347;SDS011;8791;50.876;4.342;2023-06-24T10:48:23;2.78;;;2.20;;
17347;SDS011;8791;50.876;4.342;2023-06-24T10:50:50;3.00;;;2.05;;
17347;SDS011;8791;50.876;4.342;2023-06-24T10:53:17;1.70;;;1.50;;
17347;SDS011;8791;50.876;4.342;2023-06-24T10:55:46;1.98;;;1.77;;
17347;SDS011;8791;50.876;4.342;2023-06-24T10:58:13;2.00;;;1.80;;
17347;SDS011;8791;50.876;4.342;2023-06-24T11:00:41;2.30;;;2.10;;
17347;SDS011;8791;50.876;4.342;2023-06-24T11:03:11;5.38;;;2.00;;
17347;SDS011;8791;50.876;4.342;2023-06-24T11:05:41;3.30;;;1.85;;
17347;SDS011;8791;50.876;4.342;2023-06-24T11:08:09;2.28;;;2.05;;
17347;SDS011;8791;50.876;4.342;2023-06-24T11:10:46;1.95;;;1.80;;
17347;SDS011;8791;50.876;4.342;2023-06-24T11:13:14;1.80;;;1.70;;
17347;SDS011;8791;50.876;4.342;2023-06-24T11:15:41;2.90;;;2.00;;
17347;SDS011;8791;50.876;4.342;2023-06-24T11:18:08;2.58;;;1.95;;
17347;SDS011;8791;50.876;4.342;2023-06-24T11:20:36;3.58;;;1.98;;
17347;SDS011;8791;50.876;4.342;2023-06-24T11:23:06;2.25;;;1.73;;
17347;SDS011;8791;50.876;4.342;2023-06-24T11:25:38;2.40;;;1.95;;
17347;SDS011;8791;50.876;4.342;2023-06-24T11:28:14;2.70;;;2.40;;
17347;SDS011;8791;50.876;4.342;2023-06-24T11:30:43;2.13;;;1.92;;
17347;SDS011;8791;50.876;4.342;2023-06-24T11:33:09;4.00;;;2.00;;
17347;SDS011;8791;50.876;4.342;2023-06-24T11:35:36;2.85;;;1.55;;
17347;SDS011;8791;50.876;4.342;2023-06-24T11:38:03;1.95;;;1.85;;
17347;SDS011;8791;50.876;4.342;2023-06-24T11:40:30;2.22;;;2.00;;
17347;SDS011;8791;50.876;4.342;2023-06-24T11:42:59;2.33;;;2.08;;
17347;SDS011;8791;50.876;4.342;2023-06-24T11:45:28;3.35;;;2.20;;
17347;SDS011;8791;50.876;4.342;2023-06-24T11:48:01;3.58;;;2.20;;
17347;SDS011;8791;50.876;4.342;2023-06-24T11:50:30;4.88;;;1.83;;
17347;SDS011;8791;50.876;4.342;2023-06-24T11:52:57;2.38;;;2.13;;
17347;SDS011;8791;50.876;4.342;2023-06-24T11:55:24;3.35;;;2.08;;
17347;SDS011;8791;50.876;4.342;2023-06-24T11:57:53;2.50;;;2.00;;
17347;SDS011;8791;50.876;4.342;2023-06-24T12:00:22;3.25;;;2.30;;
17347;SDS011;8791;50.876;4.342;2023-06-24T12:02:52;2.40;;;2.20;;
17347;SDS011;8791;50.876;4.342;2023-06-24T12:05:20;4.30;;;2.00;;
17347;SDS011;8791;50.876;4.342;2023-06-24T12:07:56;5.13;;;2.80;;
17347;SDS011;8791;50.876;4.342;2023-06-24T12:10:24;4.38;;;1.95;;
17347;SDS011;8791;50.876;4.342;2023-06-24T12:12:51;2.50;;;2.30;;
17347;SDS011;8791;50.876;4.342;2023-06-24T12:15:18;2.47;;;1.98;;
17347;SDS011;8791;50.876;4.342;2023-06-24T12:17:45;3.25;;;2.13;;
17347;SDS011;8791;50.876;4.342;2023-06-24T12:20:14;3.88;;;1.98;;
17347;SDS011;8791;50.876;4.342;2023-06-24T12:22:43;3.78;;;1.80;;
17347;SDS011;8791;50.876;4.342;2023-06-24T12:25:13;3.95;;;2.10;;
17347;SDS011;8791;50.876;4.342;2023-06-24T12:27:41;3.80;;;2.17;;
17347;SDS011;8791;50.876;4.342;2023-06-24T12:30:09;2.35;;;1.98;;
17347;SDS011;8791;50.876;4.342;2023-06-24T12:32:36;2.85;;;2.22;;
17347;SDS011;8791;50.876;4.342;2023-06-24T12:35:04;2.58;;;1.90;;
17347;SDS011;8791;50.876;4.342;2023-06-24T12:37:35;4.57;;;1.85;;
17347;SDS011;8791;50.876;4.342;2023-06-24T12:40:02;2.70;;;2.50;;
17347;SDS011;8791;50.876;4.342;2023-06-24T12:42:29;3.08;;;2.38;;
17347;SDS011;8791;50.876;4.342;2023-06-24T12:44:56;2.30;;;2.10;;
17347;SDS011;8791;50.876;4.342;2023-06-24T12:47:23;3.05;;;2.58;;
17347;SDS011;8791;50.876;4.342;2023-06-24T12:49:50;3.10;;;2.45;;
17347;SDS011;8791;50.876;4.342;2023-06-24T12:52:18;3.50;;;2.22;;
17347;SDS011;8791;50.876;4.342;2023-06-24T12:54:46;3.80;;;2.78;;
17347;SDS011;8791;50.876;4.342;2023-06-24T12:57:14;3.45;;;3.10;;
17347;SDS011;8791;50.876;4.342;2023-06-24T12:59:41;9.85;;;2.50;;
17347;SDS011;8791;50.876;4.342;2023-06-24T13:02:08;2.25;;;1.85;;
17347;SDS011;8791;50.876;4.342;2023-06-24T13:04:35;2.47;;;2.28;;
17347;SDS011;8791;50.876;4.342;2023-06-24T13:07:02;2.30;;;2.10;;
17347;SDS011;8791;50.876;4.342;2023-06-24T13:09:30;2.42;;;2.15;;
17347;SDS011;8791;50.876;4.342;2023-06-24T13:11:58;2.28;;;2.05;;
17347;SDS011;8791;50.876;4.342;2023-06-24T13:14:25;3.13;;;2.22;;
17347;SDS011;8791;50.876;4.342;2023-06-24T13:16:53;2.88;;;2.30;;
17347;SDS011;8791;50.876;4.342;2023-06-24T13:19:20;3.92;;;2.08;;
17347;SDS011;8791;50.876;4.342;2023-06-24T13:21:47;2.20;;;1.92;;
17347;SDS011;8791;50.876;4.342;2023-06-24T13:24:13;2.83;;;2.20;;
17347;SDS011;8791;50.876;4.342;2023-06-24T13:26:40;2.97;;;2.00;;
17347;SDS011;8791;50.876;4.342;2023-06-24T13:29:09;2.38;;;2.10;;
17347;SDS011;8791;50.876;4.342;2023-06-24T13:31:35;2.80;;;1.83;;
17347;SDS011;8791;50.876;4.342;2023-06-24T13:34:02;2.38;;;2.17;;
17347;SDS011;8791;50.876;4.342;2023-06-24T13:36:30;3.65;;;1.90;;
17347;SDS011;8791;50.876;4.342;2023-06-24T13:39:00;2.45;;;2.25;;
17347;SDS011;8791;50.876;4.342;2023-06-24T13:41:27;2.53;;;2.15;;
17347;SDS011;8791;50.876;4.342;2023-06-24T13:43:57;2.30;;;2.05;;
17347;SDS011;8791;50.876;4.342;2023-06-24T13:46:26;2.88;;;2.22;;
17347;SDS011;8791;50.876;4.342;2023-06-24T13:48:53;2.03;;;1.83;;
17347;SDS011;8791;50.876;4.342;2023-06-24T13:51:20;3.65;;;2.03;;
17347;SDS011;8791;50.876;4.342;2023-06-24T13:53:48;1.98;;;1.77;;
17347;SDS011;8791;50.876;4.342;2023-06-24T13:56:16;3.28;;;2.38;;
17347;SDS011;8791;50.876;4.342;2023-06-24T13:58:44;2.25;;;2.05;;
17347;SDS011;8791;50.876;4.342;2023-06-24T14:01:11;2.95;;;2.17;;
17347;SDS011;8791;50.876;4.342;2023-06-24T14:03:39;2.55;;;2.20;;
17347;SDS011;8791;50.876;4.342;2023-06-24T14:06:06;4.95;;;1.80;;
17347;SDS011;8791;50.876;4.342;2023-06-24T14:08:34;2.03;;;1.85;;
17347;SDS011;8791;50.876;4.342;2023-06-24T14:11:01;2.25;;;2.05;;
17347;SDS011;8791;50.876;4.342;2023-06-24T14:13:29;4.30;;;2.70;;
17347;SDS011;8791;50.876;4.342;2023-06-24T14:15:56;2.28;;;2.00;;
17347;SDS011;8791;50.876;4.342;2023-06-24T14:18:23;3.80;;;2.00;;
17347;SDS011;8791;50.876;4.342;2023-06-24T14:20:52;4.53;;;2.88;;
17347;SDS011;8791;50.876;4.342;2023-06-24T14:23:19;2.70;;;2.00;;
17347;SDS011;8791;50.876;4.342;2023-06-24T14:25:46;2.63;;;1.70;;
17347;SDS011;8791;50.876;4.342;2023-06-24T14:28:13;2.17;;;1.98;;
17347;SDS011;8791;50.876;4.342;2023-06-24T14:30:39;2.30;;;1.85;;
17347;SDS011;8791;50.876;4.342;2023-06-24T14:33:07;14.23;;;1.90;;
17347;SDS011;8791;50.876;4.342;2023-06-24T14:35:34;2.17;;;1.95;;
17347;SDS011;8791;50.876;4.342;2023-06-24T14:38:02;2.60;;;2.22;;
17347;SDS011;8791;50.876;4.342;2023-06-24T14:40:29;2.30;;;2.10;;
17347;SDS011;8791;50.876;4.342;2023-06-24T14:42:56;2.65;;;2.20;;
17347;SDS011;8791;50.876;4.342;2023-06-24T14:45:23;2.60;;;2.00;;
17347;SDS011;8791;50.876;4.342;2023-06-24T14:47:50;2.35;;;2.15;;
17347;SDS011;8791;50.876;4.342;2023-06-24T14:50:17;2.38;;;2.13;;
17347;SDS011;8791;50.876;4.342;2023-06-24T14:52:44;2.65;;;2.08;;
17347;SDS011;8791;50.876;4.342;2023-06-24T14:55:12;2.05;;;1.88;;
17347;SDS011;8791;50.876;4.342;2023-06-24T14:57:39;1.88;;;1.77;;
17347;SDS011;8791;50.876;4.342;2023-06-24T15:00:07;3.35;;;1.90;;
17347;SDS011;8791;50.876;4.342;2023-06-24T15:02:34;2.30;;;2.20;;
17347;SDS011;8791;50.876;4.342;2023-06-24T15:05:01;2.20;;;2.00;;